sensor_id;sensor_type;location;lat;lon;timestamp;pressure;altitude;pressure_sealevel;temperature;humidity
66486;BME280;53303;47.476;8.084;2023-02-23T00:01:41;94949.44;;;20.17;38.24
66486;BME280;53303;47.476;8.084;2023-02-23T00:04:07;94949.97;;;20.16;38.23
66486;BME280;53303;47.476;8.084;2023-02-23T00:06:36;94952.97;;;20.18;38.22
66486;BME280;53303;47.476;8.084;2023-02-23T00:09:03;94961.38;;;20.31;38.08
66486;BME280;53303;47.476;8.084;2023-02-23T00:11:53;94942.41;;;20.16;38.12
66486;BME280;53303;47.476;8.084;2023-02-23T00:14:20;94926.88;;;20.08;38.35
66486;BME280;53303;47.476;8.084;2023-02-23T00:16:47;94947.66;;;20.20;38.12
66486;BME280;53303;47.476;8.084;2023-02-23T00:19:14;94950.38;;;20.26;37.97
66486;BME280;53303;47.476;8.084;2023-02-23T00:21:40;94937.38;;;20.15;38.15
66486;BME280;53303;47.476;8.084;2023-02-23T00:24:10;94934.09;;;20.16;38.12
66486;BME280;53303;47.476;8.084;2023-02-23T00:26:37;94949.56;;;20.31;38.23
66486;BME280;53303;47.476;8.084;2023-02-23T00:29:13;94955.84;;;20.31;38.06
66486;BME280;53303;47.476;8.084;2023-02-23T00:31:42;94955.84;;;20.31;38.01
66486;BME280;53303;47.476;8.084;2023-02-23T00:34:12;94930.34;;;20.14;38.11
66486;BME280;53303;47.476;8.084;2023-02-23T00:36:37;94954.34;;;20.30;37.99
66486;BME280;53303;47.476;8.084;2023-02-23T00:39:06;94921.34;;;20.08;38.14
66486;BME280;53303;47.476;8.084;2023-02-23T00:41:43;94952.31;;;20.31;38.13
66486;BME280;53303;47.476;8.084;2023-02-23T00:44:13;94927.03;;;20.15;38.00
66486;BME280;53303;47.476;8.084;2023-02-23T00:46:44;94950.81;;;20.30;38.01
66486;BME280;53303;47.476;8.084;2023-02-23T00:49:15;94926.31;;;20.15;37.87
66486;BME280;53303;47.476;8.084;2023-02-23T00:51:41;94926.81;;;20.13;38.02
66486;BME280;53303;47.476;8.084;2023-02-23T00:54:09;94948.81;;;20.30;38.10
66486;BME280;53303;47.476;8.084;2023-02-23T00:56:39;94925.78;;;20.16;37.86
66486;BME280;53303;47.476;8.084;2023-02-23T00:59:05;94938.59;;;20.20;38.01
66486;BME280;53303;47.476;8.084;2023-02-23T01:01:31;94949.56;;;20.31;38.04
66486;BME280;53303;47.476;8.084;2023-02-23T01:03:56;94913.78;;;20.08;37.99
66486;BME280;53303;47.476;8.084;2023-02-23T01:06:22;94936.81;;;20.22;37.94
66486;BME280;53303;47.476;8.084;2023-02-23T01:08:51;94921.28;;;20.13;37.96
66486;BME280;53303;47.476;8.084;2023-02-23T01:11:23;94942.50;;;20.30;37.99
66486;BME280;53303;47.476;8.084;2023-02-23T01:13:51;94931.56;;;20.19;37.98
66486;BME280;53303;47.476;8.084;2023-02-23T01:16:22;94936.97;;;20.30;37.81
66486;BME280;53303;47.476;8.084;2023-02-23T01:18:50;94915.53;;;20.11;37.87
66486;BME280;53303;47.476;8.084;2023-02-23T01:23:50;94928.50;;;20.22;37.94
66486;BME280;53303;47.476;8.084;2023-02-23T01:26:22;94919.84;;;20.07;37.97
66486;BME280;53303;47.476;8.084;2023-02-23T01:28:48;94933.34;;;20.16;38.01
66486;BME280;53303;47.476;8.084;2023-02-23T01:31:14;94875.78;;;19.84;38.05
66486;BME280;53303;47.476;8.084;2023-02-23T01:33:40;94904.56;;;20.00;38.10
66486;BME280;53303;47.476;8.084;2023-02-23T01:36:05;94889.44;;;20.01;38.01
66486;BME280;53303;47.476;8.084;2023-02-23T01:38:31;94913.41;;;20.17;37.87
66486;BME280;53303;47.476;8.084;2023-02-23T01:40:59;94895.38;;;20.11;37.78
66486;BME280;53303;47.476;8.084;2023-02-23T01:43:24;94918.66;;;20.21;37.85
66486;BME280;53303;47.476;8.084;2023-02-23T01:45:55;94923.63;;;20.28;37.81
66486;BME280;53303;47.476;8.084;2023-02-23T01:48:31;94919.59;;;20.29;37.75
66486;BME280;53303;47.476;8.084;2023-02-23T01:51:11;94897.88;;;20.14;37.89
66486;BME280;53303;47.476;8.084;2023-02-23T01:53:41;94897.56;;;20.18;37.69
66486;BME280;53303;47.476;8.084;2023-02-23T01:56:18;94909.03;;;20.28;37.83
66486;BME280;53303;47.476;8.084;2023-02-23T01:58:48;94888.56;;;20.12;37.79
66486;BME280;53303;47.476;8.084;2023-02-23T02:01:17;94909.63;;;20.21;37.81
66486;BME280;53303;47.476;8.084;2023-02-23T02:03:49;94882.28;;;20.11;38.00
66486;BME280;53303;47.476;8.084;2023-02-23T02:06:17;94893.75;;;20.21;37.87
66486;BME280;53303;47.476;8.084;2023-02-23T02:08:50;94910.53;;;20.29;37.81
66486;BME280;53303;47.476;8.084;2023-02-23T02:11:20;94915.31;;;20.28;37.95
66486;BME280;53303;47.476;8.084;2023-02-23T02:39:33;94900.50;;;20.26;37.99
66486;BME280;53303;47.476;8.084;2023-02-23T02:50:26;94887.00;;;20.16;37.96
66486;BME280;53303;47.476;8.084;2023-02-23T02:53:09;94889.50;;;20.20;37.93
66486;BME280;53303;47.476;8.084;2023-02-23T02:55:37;94890.00;;;20.19;37.92
66486;BME280;53303;47.476;8.084;2023-02-23T02:58:05;94883.50;;;20.16;37.82
66486;BME280;53303;47.476;8.084;2023-02-23T03:00:50;94866.75;;;20.03;37.89
66486;BME280;53303;47.476;8.084;2023-02-23T03:06:43;94865.50;;;20.04;37.92
66486;BME280;53303;47.476;8.084;2023-02-23T03:09:50;94892.72;;;20.24;37.75
66486;BME280;53303;47.476;8.084;2023-02-23T03:12:46;94899.53;;;20.23;37.83
66486;BME280;53303;47.476;8.084;2023-02-23T03:21:23;94877.19;;;20.15;37.68
66486;BME280;53303;47.476;8.084;2023-02-23T03:24:15;94891.22;;;20.23;37.80
66486;BME280;53303;47.476;8.084;2023-02-23T03:30:24;94863.47;;;20.04;37.89
66486;BME280;53303;47.476;8.084;2023-02-23T03:33:29;94881.75;;;20.13;37.88
66486;BME280;53303;47.476;8.084;2023-02-23T03:36:23;94886.19;;;20.22;37.92
66486;BME280;53303;47.476;8.084;2023-02-23T03:39:25;94865.03;;;20.00;37.67
66486;BME280;53303;47.476;8.084;2023-02-23T03:42:15;94886.19;;;20.22;37.79
66486;BME280;53303;47.476;8.084;2023-02-23T03:45:06;94856.44;;;20.03;37.74
66486;BME280;53303;47.476;8.084;2023-02-23T03:47:53;94862.44;;;20.07;37.76
66486;BME280;53303;47.476;8.084;2023-02-23T03:50:46;94870.75;;;20.07;37.92
66486;BME280;53303;47.476;8.084;2023-02-23T03:53:50;94879.28;;;20.09;37.85
66486;BME280;53303;47.476;8.084;2023-02-23T03:56:40;94848.25;;;19.92;37.76
66486;BME280;53303;47.476;8.084;2023-02-23T03:59:33;94870.47;;;20.11;37.79
66486;BME280;53303;47.476;8.084;2023-02-23T04:02:20;94868.72;;;20.08;37.84
66486;BME280;53303;47.476;8.084;2023-02-23T04:05:12;94852.91;;;20.03;37.72
66486;BME280;53303;47.476;8.084;2023-02-23T04:08:03;94875.19;;;20.16;37.65
66486;BME280;53303;47.476;8.084;2023-02-23T04:10:53;94863.69;;;20.06;37.86
66486;BME280;53303;47.476;8.084;2023-02-23T04:13:44;94865.66;;;20.11;37.92
66486;BME280;53303;47.476;8.084;2023-02-23T04:16:15;94886.31;;;20.10;37.87
66486;BME280;53303;47.476;8.084;2023-02-23T04:18:40;94843.69;;;19.94;37.80
66486;BME280;53303;47.476;8.084;2023-02-23T04:21:08;94839.72;;;19.90;37.58
66486;BME280;53303;47.476;8.084;2023-02-23T04:23:37;94863.63;;;20.12;37.54
66486;BME280;53303;47.476;8.084;2023-02-23T04:26:04;94878.84;;;20.24;37.85
66486;BME280;53303;47.476;8.084;2023-02-23T04:28:32;94850.09;;;20.08;37.65
66486;BME280;53303;47.476;8.084;2023-02-23T04:30:59;94858.38;;;20.08;37.58
66486;BME280;53303;47.476;8.084;2023-02-23T04:33:26;94878.41;;;20.20;37.75
66486;BME280;53303;47.476;8.084;2023-02-23T04:35:54;94880.38;;;20.25;37.61
66486;BME280;53303;47.476;8.084;2023-02-23T04:38:21;94877.88;;;20.22;37.80
66486;BME280;53303;47.476;8.084;2023-02-23T04:40:49;94890.69;;;20.25;37.63
66486;BME280;53303;47.476;8.084;2023-02-23T04:43:20;94827.91;;;19.89;37.82
66486;BME280;53303;47.476;8.084;2023-02-23T04:45:49;94878.94;;;20.19;37.56
66486;BME280;53303;47.476;8.084;2023-02-23T04:48:15;94862.66;;;20.09;38.03
66486;BME280;53303;47.476;8.084;2023-02-23T04:50:41;94872.41;;;20.16;37.72
66486;BME280;53303;47.476;8.084;2023-02-23T04:53:09;94877.38;;;20.23;37.83
66486;BME280;53303;47.476;8.084;2023-02-23T04:55:34;94875.13;;;20.22;37.69
66486;BME280;53303;47.476;8.084;2023-02-23T04:58:05;94879.16;;;20.21;37.64
66486;BME280;53303;47.476;8.084;2023-02-23T05:00:37;94864.91;;;20.11;38.02
66486;BME280;53303;47.476;8.084;2023-02-23T05:03:03;94843.41;;;19.98;38.16
66486;BME280;53303;47.476;8.084;2023-02-23T05:05:28;94863.84;;;20.14;38.13
66486;BME280;53303;47.476;8.084;2023-02-23T05:07:56;94884.84;;;20.28;38.26
66486;BME280;53303;47.476;8.084;2023-02-23T05:10:22;94879.16;;;20.21;38.23
66486;BME280;53303;47.476;8.084;2023-02-23T05:12:47;94890.16;;;20.26;38.27
66486;BME280;53303;47.476;8.084;2023-02-23T05:15:15;94855.41;;;20.06;38.37
66486;BME280;53303;47.476;8.084;2023-02-23T05:17:41;94855.91;;;20.05;38.32
66486;BME280;53303;47.476;8.084;2023-02-23T05:20:09;94864.41;;;20.12;38.29
66486;BME280;53303;47.476;8.084;2023-02-23T05:22:35;94865.44;;;20.09;38.52
66486;BME280;53303;47.476;8.084;2023-02-23T05:25:04;94853.88;;;20.05;38.45
66486;BME280;53303;47.476;8.084;2023-02-23T05:27:32;94874.91;;;20.20;38.33
66486;BME280;53303;47.476;8.084;2023-02-23T05:29:58;94858.75;;;19.99;38.44
66486;BME280;53303;47.476;8.084;2023-02-23T05:32:24;94870.75;;;20.07;38.14
66486;BME280;53303;47.476;8.084;2023-02-23T05:34:49;94864.50;;;20.01;38.71
66486;BME280;53303;47.476;8.084;2023-02-23T05:37:15;94875.75;;;20.09;38.55
66486;BME280;53303;47.476;8.084;2023-02-23T05:39:43;94871.34;;;20.00;38.47
66486;BME280;53303;47.476;8.084;2023-02-23T05:42:11;94892.31;;;20.14;38.48
66486;BME280;53303;47.476;8.084;2023-02-23T05:44:36;94858.31;;;19.95;38.48
66486;BME280;53303;47.476;8.084;2023-02-23T05:47:04;94878.28;;;20.07;38.50
66486;BME280;53303;47.476;8.084;2023-02-23T05:49:32;94881.25;;;20.14;38.54
66486;BME280;53303;47.476;8.084;2023-02-23T05:51:59;94892.31;;;20.14;38.45
66486;BME280;53303;47.476;8.084;2023-02-23T05:54:27;94892.31;;;20.14;38.28
66486;BME280;53303;47.476;8.084;2023-02-23T05:56:52;94878.59;;;20.03;38.27
66486;BME280;53303;47.476;8.084;2023-02-23T05:59:18;94884.53;;;20.13;38.39
66486;BME280;53303;47.476;8.084;2023-02-23T06:01:45;94878.25;;;20.12;38.54
66486;BME280;53303;47.476;8.084;2023-02-23T06:04:11;94852.88;;;19.84;38.44
66486;BME280;53303;47.476;8.084;2023-02-23T06:06:39;94851.53;;;19.90;38.54
66486;BME280;53303;47.476;8.084;2023-02-23T06:09:06;94877.47;;;20.12;38.37
66486;BME280;53303;47.476;8.084;2023-02-23T06:11:34;94866.03;;;20.02;38.61
66486;BME280;53303;47.476;8.084;2023-02-23T06:14:02;94856.34;;;19.90;38.26
66486;BME280;53303;47.476;8.084;2023-02-23T06:16:27;94871.09;;;19.98;38.44
66486;BME280;53303;47.476;8.084;2023-02-23T06:18:55;94879.34;;;20.04;38.50
66486;BME280;53303;47.476;8.084;2023-02-23T06:21:23;94842.84;;;19.81;38.39
66486;BME280;53303;47.476;8.084;2023-02-23T06:23:51;94878.59;;;20.03;38.42
66486;BME280;53303;47.476;8.084;2023-02-23T06:26:17;94881.28;;;20.09;38.46
66486;BME280;53303;47.476;8.084;2023-02-23T06:28:43;94879.06;;;20.07;38.56
66486;BME280;53303;47.476;8.084;2023-02-23T06:31:10;94870.56;;;20.00;38.43
66486;BME280;53303;47.476;8.084;2023-02-23T06:33:36;94873.81;;;20.04;38.39
66486;BME280;53303;47.476;8.084;2023-02-23T06:36:03;94863.63;;;19.93;38.39
66486;BME280;53303;47.476;8.084;2023-02-23T06:38:29;94889.38;;;20.07;38.37
66486;BME280;53303;47.476;8.084;2023-02-23T06:40:54;94842.63;;;19.73;38.39
66486;BME280;53303;47.476;8.084;2023-02-23T06:43:22;94887.19;;;20.00;38.27
66486;BME280;53303;47.476;8.084;2023-02-23T06:45:47;94891.97;;;19.99;38.29
66486;BME280;53303;47.476;8.084;2023-02-23T06:48:13;94896.25;;;20.00;38.34
66486;BME280;53303;47.476;8.084;2023-02-23T06:50:38;94883.50;;;19.91;38.56
66486;BME280;53303;47.476;8.084;2023-02-23T06:53:10;94903.50;;;20.03;38.44
66486;BME280;53303;47.476;8.084;2023-02-23T06:55:37;94883.78;;;19.88;38.42
66486;BME280;53303;47.476;8.084;2023-02-23T06:58:08;94900.81;;;19.97;38.30
66486;BME280;53303;47.476;8.084;2023-02-23T07:00:35;94897.13;;;19.89;38.48
66486;BME280;53303;47.476;8.084;2023-02-23T07:03:05;94899.13;;;19.89;38.25
66486;BME280;53303;47.476;8.084;2023-02-23T07:05:36;94928.38;;;20.09;38.46
66486;BME280;53303;47.476;8.084;2023-02-23T07:08:03;94927.63;;;20.08;38.50
66486;BME280;53303;47.476;8.084;2023-02-23T07:10:29;94937.97;;;20.08;38.44
66486;BME280;53303;47.476;8.084;2023-02-23T07:12:57;94904.16;;;19.90;38.34
66486;BME280;53303;47.476;8.084;2023-02-23T07:15:23;94920.47;;;19.94;38.36
66486;BME280;53303;47.476;8.084;2023-02-23T07:17:51;94939.44;;;20.09;38.30
66486;BME280;53303;47.476;8.084;2023-02-23T07:20:19;94896.19;;;19.81;38.25
66486;BME280;53303;47.476;8.084;2023-02-23T07:22:44;94916.44;;;19.95;38.25
66486;BME280;53303;47.476;8.084;2023-02-23T07:25:10;94932.50;;;20.02;38.29
66486;BME280;53303;47.476;8.084;2023-02-23T07:27:36;94935.94;;;20.08;38.30
66486;BME280;53303;47.476;8.084;2023-02-23T07:30:01;94929.19;;;20.04;38.07
66486;BME280;53303;47.476;8.084;2023-02-23T07:32:29;94929.72;;;20.02;38.39
66486;BME280;53303;47.476;8.084;2023-02-23T07:34:55;94937.22;;;20.07;38.21
66486;BME280;53303;47.476;8.084;2023-02-23T07:37:22;94938.72;;;20.08;38.24
66486;BME280;53303;47.476;8.084;2023-02-23T07:39:50;94924.69;;;20.01;38.33
66486;BME280;53303;47.476;8.084;2023-02-23T07:42:18;94943.50;;;20.08;38.40
66486;BME280;53303;47.476;8.084;2023-02-23T07:44:46;94941.47;;;20.08;38.23
66486;BME280;53303;47.476;8.084;2023-02-23T07:47:11;94943.50;;;20.08;38.14
66486;BME280;53303;47.476;8.084;2023-02-23T07:49:39;94916.22;;;19.93;38.47
66486;BME280;53303;47.476;8.084;2023-02-23T07:52:04;94928.03;;;19.93;38.26
66486;BME280;53303;47.476;8.084;2023-02-23T07:54:30;94928.78;;;19.94;38.21
66486;BME280;53303;47.476;8.084;2023-02-23T07:56:55;94941.75;;;20.05;38.20
66486;BME280;53303;47.476;8.084;2023-02-23T07:59:23;94943.78;;;20.04;38.05
66486;BME280;53303;47.476;8.084;2023-02-23T08:01:49;94914.31;;;19.82;38.55
66486;BME280;53303;47.476;8.084;2023-02-23T08:04:18;94931.78;;;19.96;38.35
66486;BME280;53303;47.476;8.084;2023-02-23T08:06:48;94921.75;;;19.93;38.30
66486;BME280;53303;47.476;8.084;2023-02-23T08:09:16;94931.84;;;19.90;38.38
66486;BME280;53303;47.476;8.084;2023-02-23T08:11:44;94925.28;;;19.93;38.12
66486;BME280;53303;47.476;8.084;2023-02-23T08:14:09;94927.59;;;19.89;38.35
66486;BME280;53303;47.476;8.084;2023-02-23T08:16:35;94915.50;;;19.87;38.20
66486;BME280;53303;47.476;8.084;2023-02-23T08:19:00;94922.78;;;19.90;38.13
66486;BME280;53303;47.476;8.084;2023-02-23T08:21:29;94902.53;;;19.76;38.21
66486;BME280;53303;47.476;8.084;2023-02-23T08:23:57;94937.53;;;19.98;38.24
66486;BME280;53303;47.476;8.084;2023-02-23T08:26:23;94952.56;;;20.08;38.26
66486;BME280;53303;47.476;8.084;2023-02-23T08:28:52;94952.84;;;20.05;38.26
66486;BME280;53303;47.476;8.084;2023-02-23T08:31:18;94949.34;;;20.04;38.22
66486;BME280;53303;47.476;8.084;2023-02-23T08:33:47;94945.34;;;20.00;38.11
66486;BME280;53303;47.476;8.084;2023-02-23T08:36:17;94918.72;;;19.91;38.07
66486;BME280;53303;47.476;8.084;2023-02-23T08:38:45;94949.78;;;20.08;38.03
66486;BME280;53303;47.476;8.084;2023-02-23T08:41:14;94926.53;;;19.92;38.15
66486;BME280;53303;47.476;8.084;2023-02-23T08:43:39;94923.81;;;19.87;38.26
66486;BME280;53303;47.476;8.084;2023-02-23T08:46:08;94940.03;;;20.02;38.35
66486;BME280;53303;47.476;8.084;2023-02-23T08:48:34;94952.03;;;20.10;38.05
66486;BME280;53303;47.476;8.084;2023-02-23T08:51:00;94913.03;;;19.83;38.18
66486;BME280;53303;47.476;8.084;2023-02-23T08:53:27;94933.06;;;19.95;38.08
66486;BME280;53303;47.476;8.084;2023-02-23T08:55:58;94943.09;;;19.98;38.05
66486;BME280;53303;47.476;8.084;2023-02-23T08:58:27;94959.84;;;20.11;38.30
66486;BME280;53303;47.476;8.084;2023-02-23T09:00:54;94944.09;;;20.01;38.14
66486;BME280;53303;47.476;8.084;2023-02-23T09:03:21;94957.81;;;20.12;38.17
66486;BME280;53303;47.476;8.084;2023-02-23T09:05:49;94940.84;;;19.96;38.22
66486;BME280;53303;47.476;8.084;2023-02-23T09:08:20;94920.75;;;19.90;38.16
66486;BME280;53303;47.476;8.084;2023-02-23T09:10:48;94946.78;;;20.06;38.18
66486;BME280;53303;47.476;8.084;2023-02-23T09:13:14;94951.81;;;20.08;38.18
66486;BME280;53303;47.476;8.084;2023-02-23T09:15:40;94919.22;;;19.95;38.05
66486;BME280;53303;47.476;8.084;2023-02-23T09:18:09;94960.56;;;20.12;38.19
66486;BME280;53303;47.476;8.084;2023-02-23T09:20:35;94949.34;;;20.04;38.14
66486;BME280;53303;47.476;8.084;2023-02-23T09:23:07;94946.63;;;19.99;38.12
66486;BME280;53303;47.476;8.084;2023-02-23T09:25:38;94937.09;;;19.94;38.29
66486;BME280;53303;47.476;8.084;2023-02-23T09:28:06;94968.38;;;20.13;38.11
66486;BME280;53303;47.476;8.084;2023-02-23T09:30:31;94959.38;;;20.07;38.00
66486;BME280;53303;47.476;8.084;2023-02-23T09:32:59;94944.38;;;19.97;38.24
66486;BME280;53303;47.476;8.084;2023-02-23T09:35:24;94949.84;;;20.03;38.06
66486;BME280;53303;47.476;8.084;2023-02-23T09:37:53;94960.13;;;20.08;37.94
66486;BME280;53303;47.476;8.084;2023-02-23T09:40:23;94952.31;;;20.06;38.17
66486;BME280;53303;47.476;8.084;2023-02-23T09:43:14;94962.84;;;20.13;38.09
66486;BME280;53303;47.476;8.084;2023-02-23T09:45:42;94972.66;;;20.14;38.01
66486;BME280;53303;47.476;8.084;2023-02-23T09:48:22;94964.63;;;20.11;38.12
66486;BME280;53303;47.476;8.084;2023-02-23T09:50:50;94943.72;;;20.10;38.09
66486;BME280;53303;47.476;8.084;2023-02-23T09:56:05;94960.28;;;20.15;38.19
66486;BME280;53303;47.476;8.084;2023-02-23T09:58:32;94938.25;;;20.04;38.07
66486;BME280;53303;47.476;8.084;2023-02-23T10:04:31;94964.06;;;20.18;37.99
66486;BME280;53303;47.476;8.084;2023-02-23T10:06:39;94937.97;;;20.08;38.12
66486;BME280;53303;47.476;8.084;2023-02-23T10:12:25;94940.50;;;20.06;38.32
66486;BME280;53303;47.476;8.084;2023-02-23T10:15:17;94942.19;;;20.14;38.07
66486;BME280;53303;47.476;8.084;2023-02-23T10:17:57;94940.38;;;20.17;38.29
66486;BME280;53303;47.476;8.084;2023-02-23T10:23:14;94917.88;;;20.02;38.32
66486;BME280;53303;47.476;8.084;2023-02-23T10:25:46;94920.13;;;20.03;38.10
66486;BME280;53303;47.476;8.084;2023-02-23T10:28:17;94942.88;;;20.21;38.02
66486;BME280;53303;47.476;8.084;2023-02-23T10:30:49;94936.06;;;20.22;38.00
66486;BME280;53303;47.476;8.084;2023-02-23T10:33:21;94940.31;;;20.23;38.14
66486;BME280;53303;47.476;8.084;2023-02-23T10:35:51;94941.84;;;20.24;38.09
66486;BME280;53303;47.476;8.084;2023-02-23T10:38:19;94926.31;;;20.15;38.27
66486;BME280;53303;47.476;8.084;2023-02-23T10:40:49;94933.81;;;20.20;38.05
66486;BME280;53303;47.476;8.084;2023-02-23T10:43:15;94931.56;;;20.19;38.12
66486;BME280;53303;47.476;8.084;2023-02-23T10:45:46;94924.50;;;20.17;37.79
66486;BME280;53303;47.476;8.084;2023-02-23T10:48:23;94945.78;;;20.28;37.92
66486;BME280;53303;47.476;8.084;2023-02-23T10:50:55;94923.69;;;20.23;37.98
66486;BME280;53303;47.476;8.084;2023-02-23T10:53:31;94932.19;;;20.30;37.94
66486;BME280;53303;47.476;8.084;2023-02-23T10:56:10;94936.44;;;20.31;38.00
66486;BME280;53303;47.476;8.084;2023-02-23T10:58:48;94938.47;;;20.31;38.08
66486;BME280;53303;47.476;8.084;2023-02-23T11:01:35;94929.00;;;20.21;37.86
66486;BME280;53303;47.476;8.084;2023-02-23T11:06:43;94931.66;;;20.32;38.18
66486;BME280;53303;47.476;8.084;2023-02-23T11:09:28;94869.44;;;19.89;38.06
66486;BME280;53303;47.476;8.084;2023-02-23T11:12:03;94915.38;;;20.23;38.05
66486;BME280;53303;47.476;8.084;2023-02-23T11:14:41;94901.31;;;20.21;37.88
66486;BME280;53303;47.476;8.084;2023-02-23T11:19:48;94908.06;;;20.25;37.95
66486;BME280;53303;47.476;8.084;2023-02-23T11:22:20;94908.28;;;20.27;37.85
66486;BME280;53303;47.476;8.084;2023-02-23T11:24:48;94921.56;;;20.34;37.79
66486;BME280;53303;47.476;8.084;2023-02-23T11:27:23;94897.00;;;20.25;38.09
66486;BME280;53303;47.476;8.084;2023-02-23T11:29:51;94905.97;;;20.31;37.63
66486;BME280;53303;47.476;8.084;2023-02-23T11:32:21;94868.50;;;20.06;37.88
66486;BME280;53303;47.476;8.084;2023-02-23T11:35:11;94902.38;;;20.37;38.03
66486;BME280;53303;47.476;8.084;2023-02-23T11:37:37;94893.41;;;20.30;37.82
66486;BME280;53303;47.476;8.084;2023-02-23T11:40:19;94892.84;;;20.32;37.83
66486;BME280;53303;47.476;8.084;2023-02-23T11:45:33;94891.81;;;20.35;38.17
66486;BME280;53303;47.476;8.084;2023-02-23T11:48:03;94894.53;;;20.41;38.04
66486;BME280;53303;47.476;8.084;2023-02-23T11:50:35;94883.72;;;20.37;38.30
66486;BME280;53303;47.476;8.084;2023-02-23T11:53:05;94891.00;;;20.40;38.03
66486;BME280;53303;47.476;8.084;2023-02-23T11:55:35;94873.75;;;20.28;38.05
66486;BME280;53303;47.476;8.084;2023-02-23T12:00:58;94871.28;;;20.25;37.99
66486;BME280;53303;47.476;8.084;2023-02-23T12:03:25;94862.97;;;20.25;38.09
66486;BME280;53303;47.476;8.084;2023-02-23T12:05:53;94882.69;;;20.40;38.08
66486;BME280;53303;47.476;8.084;2023-02-23T12:08:46;94870.03;;;20.26;38.22
66486;BME280;53303;47.476;8.084;2023-02-23T12:11:20;94880.44;;;20.39;37.80
66486;BME280;53303;47.476;8.084;2023-02-23T12:13:53;94888.00;;;20.38;38.06
66486;BME280;53303;47.476;8.084;2023-02-23T12:16:27;94867.25;;;20.26;38.23
66486;BME280;53303;47.476;8.084;2023-02-23T12:21:34;94888.00;;;20.38;38.02
66486;BME280;53303;47.476;8.084;2023-02-23T12:32:48;94874.06;;;20.25;38.31
66486;BME280;53303;47.476;8.084;2023-02-23T12:35:22;94879.25;;;20.34;38.06
66486;BME280;53303;47.476;8.084;2023-02-23T12:37:59;94870.47;;;20.30;38.13
66486;BME280;53303;47.476;8.084;2023-02-23T12:40:29;94870.03;;;20.26;38.22
66486;BME280;53303;47.476;8.084;2023-02-23T12:43:58;94878.25;;;20.31;38.21
66486;BME280;53303;47.476;8.084;2023-02-23T12:46:15;94873.47;;;20.32;38.21
66486;BME280;53303;47.476;8.084;2023-02-23T12:53:56;94855.72;;;20.22;38.16
66486;BME280;53303;47.476;8.084;2023-02-23T12:57:36;94859.75;;;20.21;38.06
66486;BME280;53303;47.476;8.084;2023-02-23T13:00:06;94863.81;;;20.20;38.28
66486;BME280;53303;47.476;8.084;2023-02-23T13:03:03;94881.34;;;20.28;38.46
66486;BME280;53303;47.476;8.084;2023-02-23T13:05:39;94874.97;;;20.33;38.13
66486;BME280;53303;47.476;8.084;2023-02-23T13:08:20;94865.16;;;20.32;38.11
66486;BME280;53303;47.476;8.084;2023-02-23T13:16:33;94862.38;;;20.32;38.29
66486;BME280;53303;47.476;8.084;2023-02-23T13:22:10;94862.84;;;20.36;38.08
66486;BME280;53303;47.476;8.084;2023-02-23T13:24:42;94843.34;;;20.23;38.16
66486;BME280;53303;47.476;8.084;2023-02-23T13:29:45;94850.34;;;20.29;38.17
66486;BME280;53303;47.476;8.084;2023-02-23T13:32:18;94864.03;;;20.41;37.95
66486;BME280;53303;47.476;8.084;2023-02-23T13:37:18;94831.53;;;20.22;38.04
66486;BME280;53303;47.476;8.084;2023-02-23T13:42:22;94854.59;;;20.49;37.89
66486;BME280;53303;47.476;8.084;2023-02-23T13:45:58;94858.44;;;20.46;38.13
66486;BME280;53303;47.476;8.084;2023-02-23T13:50:56;94850.13;;;20.46;38.15
66486;BME280;53303;47.476;8.084;2023-02-23T13:56:46;94850.34;;;20.48;37.96
66486;BME280;53303;47.476;8.084;2023-02-23T13:59:40;94842.34;;;20.45;37.89
66486;BME280;53303;47.476;8.084;2023-02-23T14:04:55;94822.63;;;20.29;38.02
66486;BME280;53303;47.476;8.084;2023-02-23T14:07:41;94829.69;;;20.30;38.10
66486;BME280;53303;47.476;8.084;2023-02-23T14:10:18;94843.59;;;20.44;37.88
66486;BME280;53303;47.476;8.084;2023-02-23T14:18:48;94840.16;;;20.57;37.89
66486;BME280;53303;47.476;8.084;2023-02-23T14:26:16;94809.91;;;20.40;37.97
66486;BME280;53303;47.476;8.084;2023-02-23T14:31:52;94830.56;;;20.58;38.03
66486;BME280;53303;47.476;8.084;2023-02-23T14:34:20;94831.78;;;20.62;37.97
66486;BME280;53303;47.476;8.084;2023-02-23T14:36:47;94809.97;;;20.53;37.86
66486;BME280;53303;47.476;8.084;2023-02-23T14:39:23;94820.19;;;20.64;38.18
66486;BME280;53303;47.476;8.084;2023-02-23T14:41:55;94812.66;;;20.59;37.78
66486;BME280;53303;47.476;8.084;2023-02-23T14:47:12;94826.72;;;20.66;37.96
66486;BME280;53303;47.476;8.084;2023-02-23T14:49:44;94820.19;;;20.64;37.63
66486;BME280;53303;47.476;8.084;2023-02-23T14:54:45;94803.06;;;20.60;37.99
66486;BME280;53303;47.476;8.084;2023-02-23T14:57:24;94799.81;;;20.61;37.90
66486;BME280;53303;47.476;8.084;2023-02-23T15:02:23;94825.41;;;20.86;37.75
66486;BME280;53303;47.476;8.084;2023-02-23T15:04:49;94798.47;;;20.68;37.69
66486;BME280;53303;47.476;8.084;2023-02-23T15:09:54;94830.13;;;20.91;37.73
66486;BME280;53303;47.476;8.084;2023-02-23T15:12:27;94797.84;;;20.75;37.82
66486;BME280;53303;47.476;8.084;2023-02-23T15:14:58;94828.81;;;20.92;37.80
66486;BME280;53303;47.476;8.084;2023-02-23T15:17:28;94827.56;;;20.94;37.80
66486;BME280;53303;47.476;8.084;2023-02-23T15:19:59;94809.06;;;20.83;37.91
66486;BME280;53303;47.476;8.084;2023-02-23T15:22:32;94795.91;;;20.70;37.83
66486;BME280;53303;47.476;8.084;2023-02-23T15:25:12;94822.00;;;20.94;37.85
66486;BME280;53303;47.476;8.084;2023-02-23T15:27:40;94801.28;;;20.81;37.99
66486;BME280;53303;47.476;8.084;2023-02-23T15:32:46;94784.13;;;20.64;37.73
66486;BME280;53303;47.476;8.084;2023-02-23T15:35:12;94825.44;;;21.00;37.90
66486;BME280;53303;47.476;8.084;2023-02-23T15:37:41;94806.00;;;20.86;37.94
66486;BME280;53303;47.476;8.084;2023-02-23T15:40:15;94826.94;;;21.01;37.95
66486;BME280;53303;47.476;8.084;2023-02-23T15:42:55;94831.75;;;21.00;37.86
66486;BME280;53303;47.476;8.084;2023-02-23T15:47:56;94798.72;;;20.83;38.10